Observation data for McLean on 02/11/2019      Previous  Date       Current Mesonet Observations  Soil Data  Daily Summary Page  Observations in Plain Language
KMCS 110600Z 16008KT 04/03 A2984 RMK A01 T00360030  RH  097%=      5-min Rain = 0
KMCS 110605Z 17007KT 04/03 A2984 RMK A01 T00370031  RH  098%=      5-min Rain = 0
KMCS 110610Z 16007KT 04/03 A2984 RMK A01 T00370031  RH  098%=      5-min Rain = 0
KMCS 110615Z 17007KT 04/03 A2984 RMK A01 T00370031  RH  098%=      5-min Rain = 0
KMCS 110620Z 16007KT 04/03 A2983 RMK A01 T00370031  RH  098%=      5-min Rain = 0
KMCS 110625Z 15007KT 04/03 A2983 RMK A01 T00370032  RH  098%=      5-min Rain = 0
KMCS 110630Z 15007KT 04/03 A2983 RMK A01 T00370031  RH  098%=      5-min Rain = 0
KMCS 110635Z 16007KT 04/03 A2983 RMK A01 T00360031  RH  098%=      5-min Rain = 0
KMCS 110640Z 16008KT 04/03 A2983 RMK A01 T00370032  RH  098%=      5-min Rain = 0
KMCS 110645Z 16008KT 04/03 A2982 RMK A01 T00370032  RH  098%=      5-min Rain = 0
KMCS 110650Z 15009KT 04/03 A2982 RMK A01 T00370032  RH  098%=      5-min Rain = 0
KMCS 110655Z 15008KT 04/03 A2982 RMK A01 T00370032  RH  098%=      5-min Rain = 0
KMCS 110700Z 15007KT 04/03 A2982 RMK A01 T00370032  RH  098%=      5-min Rain = 0
KMCS 110705Z 16006KT 04/03 A2981 RMK A01 T00360032  RH  099%=      5-min Rain = 0
KMCS 110710Z 16007KT 04/03 A2981 RMK A01 T00360032  RH  099%=      5-min Rain = 0
KMCS 110715Z 16009KT 04/03 A2982 RMK A01 T00360032  RH  099%=      5-min Rain = 0
KMCS 110720Z 17009KT 04/03 A2982 RMK A01 T00360032  RH  099%=      5-min Rain = 0
KMCS 110725Z 17008KT 04/03 A2982 RMK A01 T00370033  RH  099%=      5-min Rain = 0
KMCS 110730Z 18009KT 04/03 A2982 RMK A01 T00370033  RH  099%=      5-min Rain = 0
KMCS 110735Z 18009KT 04/03 A2982 RMK A01 T00370034  RH  099%=      5-min Rain = 0
KMCS 110740Z 19009KT 04/03 A2982 RMK A01 T00370034  RH  099%=      5-min Rain = 0
KMCS 110745Z 18009KT 04/03 A2983 RMK A01 T00370034  RH  099%=      5-min Rain = 0
KMCS 110750Z 18008KT 04/03 A2983 RMK A01 T00380034  RH  099%=      5-min Rain = 0
KMCS 110755Z 18009KT 04/03 A2982 RMK A01 T00370034  RH  099%=      5-min Rain = 0
KMCS 110800Z 17010G15KT 04/03 A2982 RMK A01 T00370034  RH  099%=      5-min Rain = 0
KMCS 110805Z 18009KT 04/03 A2982 RMK A01 T00370034  RH  099%=      5-min Rain = 0
KMCS 110810Z 18009KT 04/03 A2981 RMK A01 T00380034  RH  099%=      5-min Rain = 0
KMCS 110815Z 18009KT 04/04 A2981 RMK A01 T00380035  RH  100%=      5-min Rain = 0
KMCS 110820Z 18009KT 04/04 A2981 RMK A01 T00380035  RH  100%=      5-min Rain = 0
KMCS 110825Z 17008G13KT 04/04 A2981 RMK A01 T00380035  RH  100%=      5-min Rain = 0
KMCS 110830Z 18008KT 04/04 A2981 RMK A01 T00380035  RH  100%=      5-min Rain = 0
KMCS 110835Z 18009KT 04/04 A2981 RMK A01 T00390036  RH  100%=      5-min Rain = 0
KMCS 110840Z 18008KT 04/04 A2981 RMK A01 T00390035  RH  100%=      5-min Rain = 0
KMCS 110845Z 18009KT 04/04 A2981 RMK A01 T00390035  RH  100%=      5-min Rain = 0
KMCS 110850Z 18009KT 04/04 A2981 RMK A01 T00390036  RH  100%=      5-min Rain = 0
KMCS 110855Z 18009KT 04/04 A2981 RMK A01 T00380035  RH  100%=      5-min Rain = 0
KMCS 110900Z 18009KT 04/04 A2981 RMK A01 T00380035  RH  100%=      5-min Rain = 0
KMCS 110905Z 18009KT 04/03 A2981 RMK A01 T00370034  RH  100%=      5-min Rain = 0
KMCS 110910Z 18009KT 04/03 A2981 RMK A01 T00370034  RH  100%=      5-min Rain = 0
KMCS 110915Z 18010KT 04/04 A298 RMK A01 T00380035  RH  100%=      5-min Rain = 0
KMCS 110920Z 18010KT 04/04 A298 RMK A01 T00380035  RH  100%=      5-min Rain = 0
KMCS 110925Z 17009KT 04/04 A298 RMK A01 T00380035  RH  100%=      5-min Rain = 0
KMCS 110930Z 18008KT 04/04 A298 RMK A01 T00380035  RH  100%=      5-min Rain = 0
KMCS 110935Z 17008KT 04/04 A2979 RMK A01 T00380035  RH  100%=      5-min Rain = 0
KMCS 110940Z 18006KT 04/04 A2979 RMK A01 T00380035  RH  100%=      5-min Rain = 0
KMCS 110945Z 18007KT 04/03 A2978 RMK A01 T00370034  RH  100%=      5-min Rain = 0
KMCS 110950Z 18006KT 04/03 A2978 RMK A01 T00370034  RH  100%=      5-min Rain = 0
KMCS 110955Z 18007KT 04/03 A2978 RMK A01 T00360033  RH  100%=      5-min Rain = 0
KMCS 111000Z 18008KT 04/03 A2978 RMK A01 T00360033  RH  100%=      5-min Rain = 0
KMCS 111005Z 19007KT 04/03 A2978 RMK A01 T00350032  RH  100%=      5-min Rain = 0
KMCS 111010Z 19008KT 04/03 A2978 RMK A01 T00350032  RH  100%=      5-min Rain = 0
KMCS 111015Z 19007KT 04/03 A2977 RMK A01 T00350032  RH  100%=      5-min Rain = 0
KMCS 111020Z 19008KT 04/03 A2977 RMK A01 T00350032  RH  100%=      5-min Rain = 0
KMCS 111025Z 19008KT 03/03 A2977 RMK A01 T00330030  RH  100%=      5-min Rain = 0
KMCS 111030Z 19009KT 03/03 A2977 RMK A01 T00330030  RH  100%=      5-min Rain = 0
KMCS 111035Z 19009KT 03/03 A2977 RMK A01 T00320029  RH  100%=      5-min Rain = 0
KMCS 111040Z 19008KT 03/03 A2977 RMK A01 T00310028  RH  100%=      5-min Rain = 0
KMCS 111045Z 19009KT 03/03 A2977 RMK A01 T00300027  RH  100%=      5-min Rain = 0
KMCS 111050Z 20008KT 03/03 A2976 RMK A01 T00290026  RH  100%=      5-min Rain = 0
KMCS 111055Z 20008KT 03/03 A2977 RMK A01 T00280026  RH  100%=      5-min Rain = 0
KMCS 111100Z 20007KT 03/03 A2977 RMK A01 T00280026  RH  100%=      5-min Rain = 0
KMCS 111105Z 21007KT 03/03 A2977 RMK A01 T00280025  RH  100%=      5-min Rain = 0
KMCS 111110Z 22007KT 03/03 A2976 RMK A01 T00270025  RH  100%=      5-min Rain = 0
KMCS 111115Z 21008KT 03/02 A2976 RMK A01 T00250023  RH  100%=      5-min Rain = 0
KMCS 111120Z 22008KT 03/02 A2976 RMK A01 T00250022  RH  100%=      5-min Rain = 0
KMCS 111125Z 22008KT 02/02 A2976 RMK A01 T00240021  RH  100%=      5-min Rain = 0
KMCS 111130Z 22008KT 02/02 A2975 RMK A01 T00240022  RH  100%=      5-min Rain = 0
KMCS 111135Z 22008KT 02/02 A2975 RMK A01 T00230021  RH  100%=      5-min Rain = 0
KMCS 111140Z 20008KT 02/02 A2975 RMK A01 T00240022  RH  100%=      5-min Rain = 0
KMCS 111145Z 20008KT 02/02 A2975 RMK A01 T00190017  RH  100%=      5-min Rain = 0
KMCS 111150Z 19007KT 01/01 A2975 RMK A01 T00140012  RH  100%=      5-min Rain = 0
KMCS 111155Z 18007KT 01/01 A2975 RMK A01 T00130011  RH  100%=      5-min Rain = 0
KMCS 111200Z 17006KT 01/01 A2974 RMK A01 T00130011  RH  100%=      5-min Rain = 0
KMCS 111205Z 16006KT 01/01 A2975 RMK A01 T00110010  RH  100%=      5-min Rain = 0
KMCS 111210Z 17005KT 01/01 A2974 RMK A01 T00080007  RH  100%=      5-min Rain = 0
KMCS 111215Z 18006KT 01/00 A2974 RMK A01 T00060004  RH  100%=      5-min Rain = 0
KMCS 111220Z 19006KT 01/00 A2974 RMK A01 T00050003  RH  100%=      5-min Rain = 0
KMCS 111225Z 19007KT 01/00 A2974 RMK A01 T00050003  RH  100%=      5-min Rain = 0
KMCS 111230Z 19007KT 00/00 A2973 RMK A01 T00030001  RH  100%=      5-min Rain = 0
KMCS 111235Z 19007KT 00/00 A2973 RMK A01 T000100-0  RH  100%=      5-min Rain = 0
KMCS 111240Z 19006KT 00/00 A2973 RMK A01 T000000-2  RH  100%=      5-min Rain = 0
KMCS 111245Z 20006KT 00/00 A2973 RMK A01 T00-000-2  RH  100%=      5-min Rain = 0
KMCS 111250Z 19006KT 00/00 A2973 RMK A01 T00-000-2  RH  100%=      5-min Rain = 0
KMCS 111255Z 19006KT M00/M00 A2973 RMK A01 T10011003  RH  100%=      5-min Rain = 0
KMCS 111300Z 20004KT 00/00 A2973 RMK A01 T00-000-2  RH  100%=      5-min Rain = 0
KMCS 111305Z 20004KT M00/M00 A2973 RMK A01 T10011002  RH  100%=      5-min Rain = 0
KMCS 111310Z 20006KT M00/M00 A2973 RMK A01 T10011003  RH  100%=      5-min Rain = 0
KMCS 111315Z 20007KT M00/M00 A2973 RMK A01 T10021003  RH  100%=      5-min Rain = 0
KMCS 111320Z 20007KT M00/M00 A2972 RMK A01 T10011002  RH  100%=      5-min Rain = 0
KMCS 111325Z 21006KT 00/M00 A2972 RMK A01 T00011001  RH  100%=      5-min Rain = 0
KMCS 111330Z 21006KT M00/M00 A2972 RMK A01 T10011002  RH  100%=      5-min Rain = 0
KMCS 111335Z 22006KT M00/M00 A2972 RMK A01 T10021004  RH  100%=      5-min Rain = 0
KMCS 111340Z 20007KT M00/M00 A2972 RMK A01 T10021004  RH  100%=      5-min Rain = 0
KMCS 111345Z 20006KT M00/M01 A2972 RMK A01 T10031005  RH  100%=      5-min Rain = 0
KMCS 111350Z 21006KT M00/M00 A2972 RMK A01 T10021003  RH  100%=      5-min Rain = 0
KMCS 111355Z 21007KT 00/00 A2972 RMK A01 T00030001  RH  100%=      5-min Rain = 0
KMCS 111400Z 20009KT 01/01 A2972 RMK A01 T00080006  RH  100%=      5-min Rain = 0
KMCS 111405Z 21009KT 01/01 A2972 RMK A01 T00120010  RH  100%=      5-min Rain = 0
KMCS 111410Z 21009KT 01/01 A2972 RMK A01 T00140012  RH  100%=      5-min Rain = 0
KMCS 111415Z 22009KT 01/01 A2972 RMK A01 T00140012  RH  100%=      5-min Rain = 0
KMCS 111420Z 22009KT 01/01 A2972 RMK A01 T00140012  RH  100%=      5-min Rain = 0
KMCS 111425Z 22009KT 02/01 A2971 RMK A01 T00160014  RH  100%=      5-min Rain = 0
KMCS 111430Z 22009KT 02/02 A2972 RMK A01 T00200018  RH  100%=      5-min Rain = 0
KMCS 111435Z 22009KT 02/02 A2971 RMK A01 T00220020  RH  100%=      5-min Rain = 0
KMCS 111440Z 22009KT 02/02 A2971 RMK A01 T00240022  RH  100%=      5-min Rain = 0
KMCS 111445Z 22011KT 03/02 A2971 RMK A01 T00250023  RH  100%=      5-min Rain = 0
KMCS 111450Z 22011KT 03/03 A2971 RMK A01 T00280025  RH  100%=      5-min Rain = 0
KMCS 111455Z 22012KT 03/03 A2972 RMK A01 T00330031  RH  100%=      5-min Rain = 0
KMCS 111500Z 23011KT 03/03 A2971 RMK A01 T00340031  RH  100%=      5-min Rain = 0
KMCS 111505Z 22012KT 04/03 A2971 RMK A01 T00350032  RH  100%=      5-min Rain = 0
KMCS 111510Z 22013KT 04/03 A2972 RMK A01 T00350033  RH  100%=      5-min Rain = 0
KMCS 111515Z 22013KT 04/03 A2972 RMK A01 T00370034  RH  100%=      5-min Rain = 0
KMCS 111520Z 23013KT 04/04 A2971 RMK A01 T00400037  RH  100%=      5-min Rain = 0
KMCS 111525Z 24013KT 04/04 A2971 RMK A01 T00440041  RH  100%=      5-min Rain = 0
KMCS 111530Z 24013KT 05/04 A2971 RMK A01 T00490041  RH  097%=      5-min Rain = 0
KMCS 111535Z 24013KT 06/03 A2972 RMK A01 T00550034  RH  088%=      5-min Rain = 0
KMCS 111540Z 23013G18KT 06/04 A2972 RMK A01 T00600035  RH  086%=      5-min Rain = 0
KMCS 111545Z 22013KT 06/04 A2972 RMK A01 T00630038  RH  085%=      5-min Rain = 0
KMCS 111550Z 21012KT 06/04 A2972 RMK A01 T00630037  RH  085%=      5-min Rain = 0
KMCS 111555Z 22011KT 06/04 A2972 RMK A01 T00610035  RH  085%=      5-min Rain = 0
KMCS 111600Z 22011KT 06/04 A2972 RMK A01 T00630035  RH  084%=      5-min Rain = 0
KMCS 111605Z 22009KT 07/04 A2972 RMK A01 T00660036  RH  082%=      5-min Rain = 0
KMCS 111610Z 22008KT 07/03 A2972 RMK A01 T00680034  RH  081%=      5-min Rain = 0
KMCS 111615Z 21006KT 07/04 A2972 RMK A01 T00680036  RH  081%=      5-min Rain = 0
KMCS 111620Z 21006KT 07/04 A2972 RMK A01 T00700038  RH  082%=      5-min Rain = 0
KMCS 111625Z 22009G14KT 08/04 A2972 RMK A01 T00790037  RH  076%=      5-min Rain = 0
KMCS 111630Z 22011KT 09/03 A2972 RMK A01 T00900026  RH  065%=      5-min Rain = 0
KMCS 111635Z 22012KT 09/02 A2972 RMK A01 T00940023  RH  062%=      5-min Rain = 0
KMCS 111640Z 23013KT 10/02 A2972 RMK A01 T01030023  RH  059%=      5-min Rain = 0
KMCS 111645Z 23015G20KT 11/02 A2971 RMK A01 T01080016  RH  054%=      5-min Rain = 0
KMCS 111650Z 23017G22KT 11/01 A2971 RMK A01 T01120013  RH  051%=      5-min Rain = 0
KMCS 111655Z 24014KT 12/01 A2971 RMK A01 T01170014  RH  050%=      5-min Rain = 0
KMCS 111700Z 26012KT 13/01 A297 RMK A01 T01260012  RH  046%=      5-min Rain = 0
KMCS 111705Z 26016G24KT 13/00 A297 RMK A01 T01320003  RH  042%=      5-min Rain = 0
KMCS 111710Z 26016G23KT 14/M01 A297 RMK A01 T01411006  RH  037%=      5-min Rain = 0
KMCS 111715Z 25018G27KT 15/M02 A2969 RMK A01 T01481015  RH  033%=      5-min Rain = 0
KMCS 111720Z 25022KT 15/M02 A2969 RMK A01 T01491023  RH  031%=      5-min Rain = 0
KMCS 111725Z 25020G26KT 15/M02 A2969 RMK A01 T01511022  RH  031%=      5-min Rain = 0
KMCS 111730Z 25022G29KT 15/M02 A2969 RMK A01 T01511022  RH  031%=      5-min Rain = 0
KMCS 111735Z 25022G28KT 15/M02 A2969 RMK A01 T01531020  RH  031%=      5-min Rain = 0
KMCS 111740Z 25020G28KT 15/M02 A2968 RMK A01 T01541020  RH  031%=      5-min Rain = 0
KMCS 111745Z 26019G26KT 15/M02 A2968 RMK A01 T01531021  RH  030%=      5-min Rain = 0
KMCS 111750Z 25018KT 16/M02 A2968 RMK A01 T01561019  RH  030%=      5-min Rain = 0
KMCS 111755Z 25016G21KT 16/M02 A2967 RMK A01 T01601017  RH  030%=      5-min Rain = 0
KMCS 111800Z 25016G22KT 16/M02 A2967 RMK A01 T01631016  RH  030%=      5-min Rain = 0
KMCS 111805Z 24014G19KT 16/M02 A2967 RMK A01 T01601015  RH  030%=      5-min Rain = 0
KMCS 111810Z 23017G22KT 16/M01 A2967 RMK A01 T01571014  RH  031%=      5-min Rain = 0
KMCS 111815Z 23016G23KT 16/M01 A2966 RMK A01 T01591012  RH  031%=      5-min Rain = 0
KMCS 111820Z 24015G21KT 16/M01 A2966 RMK A01 T01611012  RH  031%=      5-min Rain = 0
KMCS 111825Z 23016G22KT 16/M01 A2966 RMK A01 T01591012  RH  031%=      5-min Rain = 0
KMCS 111830Z 22018G25KT 16/M01 A2965 RMK A01 T01581010  RH  032%=      5-min Rain = 0
KMCS 111835Z 23016G21KT 16/M01 A2965 RMK A01 T01611007  RH  032%=      5-min Rain = 0
KMCS 111840Z 21014G19KT 16/M00 A2965 RMK A01 T01591002  RH  034%=      5-min Rain = 0
KMCS 111845Z 23013G20KT 16/M01 A2964 RMK A01 T01641011  RH  031%=      5-min Rain = 0
KMCS 111850Z 24015G20KT 17/M01 A2964 RMK A01 T01681014  RH  029%=      5-min Rain = 0
KMCS 111855Z 23017G23KT 17/M02 A2963 RMK A01 T01691018  RH  028%=      5-min Rain = 0
KMCS 111900Z 21015G23KT 16/M02 A2963 RMK A01 T01631016  RH  030%=      5-min Rain = 0
KMCS 111905Z 24015G20KT 17/M02 A2963 RMK A01 T01681015  RH  029%=      5-min Rain = 0
KMCS 111910Z 22016G22KT 17/M01 A2962 RMK A01 T01701014  RH  029%=      5-min Rain = 0
KMCS 111915Z 20015G24KT 17/M01 A2962 RMK A01 T01701013  RH  029%=      5-min Rain = 0
KMCS 111920Z 20017G22KT 17/M01 A2961 RMK A01 T01681011  RH  030%=      5-min Rain = 0
KMCS 111925Z 21016G26KT 17/M01 A2961 RMK A01 T01661008  RH  031%=      5-min Rain = 0
KMCS 111930Z 21019G25KT 17/M00 A2961 RMK A01 T01691002  RH  032%=      5-min Rain = 0
KMCS 111935Z 22019G25KT 17/00 A296 RMK A01 T01700000  RH  032%=      5-min Rain = 0
KMCS 111940Z 22017G22KT 17/00 A2959 RMK A01 T01670001  RH  033%=      5-min Rain = 0
KMCS 111945Z 22016G21KT 17/00 A2959 RMK A01 T01670003  RH  033%=      5-min Rain = 0
KMCS 111950Z 21015G20KT 17/01 A2958 RMK A01 T01660006  RH  034%=      5-min Rain = 0
KMCS 111955Z 21015KT 17/01 A2957 RMK A01 T01660008  RH  035%=      5-min Rain = 0
KMCS 112000Z 23013G19KT 17/01 A2957 RMK A01 T01690012  RH  035%=      5-min Rain = 0
KMCS 112005Z 20015G23KT 17/02 A2957 RMK A01 T01710015  RH  035%=      5-min Rain = 0
KMCS 112010Z 21016G21KT 17/02 A2957 RMK A01 T01680017  RH  037%=      5-min Rain = 0
KMCS 112015Z 20017G23KT 17/02 A2957 RMK A01 T01660022  RH  038%=      5-min Rain = 0
KMCS 112020Z 20018KT 17/03 A2957 RMK A01 T01650025  RH  040%=      5-min Rain = 0
KMCS 112025Z 20016G22KT 16/03 A2957 RMK A01 T01630028  RH  041%=      5-min Rain = 0
KMCS 112030Z 21017G22KT 16/03 A2957 RMK A01 T01620030  RH  042%=      5-min Rain = 0
KMCS 112035Z 21016G24KT 16/03 A2956 RMK A01 T01630031  RH  042%=      5-min Rain = 0
KMCS 112040Z 21016G24KT 16/03 A2956 RMK A01 T01630032  RH  042%=      5-min Rain = 0
KMCS 112045Z 20016G21KT 17/03 A2955 RMK A01 T01670032  RH  041%=      5-min Rain = 0
KMCS 112050Z 20018G25KT 16/03 A2955 RMK A01 T01610031  RH  042%=      5-min Rain = 0
KMCS 112055Z 18017G24KT 16/03 A2955 RMK A01 T01640033  RH  042%=      5-min Rain = 0
KMCS 112100Z 18017G25KT 17/03 A2954 RMK A01 T01650032  RH  042%=      5-min Rain = 0
KMCS 112105Z 19016G24KT 16/03 A2954 RMK A01 T01630033  RH  043%=      5-min Rain = 0
KMCS 112110Z 18017G24KT 17/03 A2954 RMK A01 T01650033  RH  042%=      5-min Rain = 0
KMCS 112115Z 19019G24KT 16/03 A2954 RMK A01 T01640031  RH  042%=      5-min Rain = 0
KMCS 112120Z 18015KT 16/03 A2954 RMK A01 T01580030  RH  043%=      5-min Rain = 0
KMCS 112125Z 19012KT 15/03 A2954 RMK A01 T01530029  RH  044%=      5-min Rain = 0
KMCS 112130Z 29019G32KT 15/01 A2955 RMK A01 T01460009  RH  040%=      5-min Rain = 0
KMCS 112135Z 28021G30KT 13/M00 A2955 RMK A01 T01331003  RH  040%=      5-min Rain = 0
KMCS 112140Z 28023G30KT 12/01 A2956 RMK A01 T01240014  RH  048%=      5-min Rain = 0
KMCS 112145Z 28022G29KT 11/03 A2955 RMK A01 T01140031  RH  058%=      5-min Rain = 0
KMCS 112150Z 28021G29KT 10/04 A2956 RMK A01 T01040042  RH  067%=      5-min Rain = 0.01
KMCS 112155Z 29018G23KT 10/04 A2956 RMK A01 T01030044  RH  068%=      5-min Rain = 0
KMCS 112200Z 29015G21KT 11/05 A2956 RMK A01 T01070046  RH  068%=      5-min Rain = 0
KMCS 112205Z 30016KT 11/05 A2956 RMK A01 T01110048  RH  067%=      5-min Rain = 0
KMCS 112210Z 30013KT 12/05 A2956 RMK A01 T01200049  RH  063%=      5-min Rain = 0
KMCS 112215Z 30014G19KT 13/05 A2956 RMK A01 T01260045  RH  059%=      5-min Rain = 0
KMCS 112220Z 31016KT 13/03 A2955 RMK A01 T01310032  RH  052%=      5-min Rain = 0
KMCS 112225Z 31015KT 13/03 A2956 RMK A01 T01320028  RH  050%=      5-min Rain = 0
KMCS 112230Z 30016KT 13/02 A2956 RMK A01 T01310021  RH  048%=      5-min Rain = 0
KMCS 112235Z 29014G19KT 14/02 A2956 RMK A01 T01380022  RH  046%=      5-min Rain = 0
KMCS 112240Z 29016KT 14/02 A2956 RMK A01 T01400019  RH  044%=      5-min Rain = 0
KMCS 112245Z 29015G20KT 14/01 A2956 RMK A01 T01430008  RH  040%=      5-min Rain = 0
KMCS 112250Z 29019G26KT 14/00 A2956 RMK A01 T014300-0  RH  038%=      5-min Rain = 0
KMCS 112255Z 30021KT 14/M01 A2957 RMK A01 T01421006  RH  037%=      5-min Rain = 0
KMCS 112300Z 30021G27KT 14/M01 A2957 RMK A01 T01401008  RH  036%=      5-min Rain = 0
KMCS 112305Z 30024G29KT 14/M01 A2957 RMK A01 T01351010  RH  037%=      5-min Rain = 0
KMCS 112310Z 30017G23KT 13/M01 A2958 RMK A01 T01281008  RH  039%=      5-min Rain = 0
KMCS 112315Z 29018KT 13/M01 A2958 RMK A01 T01251009  RH  040%=      5-min Rain = 0
KMCS 112320Z 29017KT 12/M01 A2958 RMK A01 T01241013  RH  039%=      5-min Rain = 0
KMCS 112325Z 29016G22KT 13/M01 A2959 RMK A01 T01261014  RH  038%=      5-min Rain = 0
KMCS 112330Z 30016KT 13/M01 A2959 RMK A01 T01261014  RH  038%=      5-min Rain = 0
KMCS 112335Z 30015KT 13/M02 A2959 RMK A01 T01271016  RH  038%=      5-min Rain = 0
KMCS 112340Z 29016G21KT 13/M02 A296 RMK A01 T01281019  RH  036%=      5-min Rain = 0
KMCS 112345Z 29014KT 13/M02 A296 RMK A01 T01261021  RH  036%=      5-min Rain = 0
KMCS 112350Z 30013KT 12/M02 A296 RMK A01 T01231022  RH  036%=      5-min Rain = 0
KMCS 112355Z 30010KT 12/M02 A296 RMK A01 T01181022  RH  038%=      5-min Rain = 0
KMCS 120000Z 30010KT 11/M02 A296 RMK A01 T01141022  RH  039%=      5-min Rain = 0
KMCS 120005Z 30011KT 11/M02 A2961 RMK A01 T01121023  RH  039%=      5-min Rain = 0
KMCS 120010Z 30011KT 11/M03 A2961 RMK A01 T01111029  RH  038%=      5-min Rain = 0
KMCS 120015Z 30012KT 11/M03 A2961 RMK A01 T01101032  RH  037%=      5-min Rain = 0
KMCS 120020Z 30011KT 11/M04 A2961 RMK A01 T01101038  RH  035%=      5-min Rain = 0
KMCS 120025Z 29011KT 11/M04 A2962 RMK A01 T01091044  RH  034%=      5-min Rain = 0
KMCS 120030Z 29013KT 11/M05 A2962 RMK A01 T01121053  RH  031%=      5-min Rain = 0
KMCS 120035Z 28014G20KT 11/M06 A2962 RMK A01 T01141058  RH  029%=      5-min Rain = 0
KMCS 120040Z 27016G23KT 12/M07 A2963 RMK A01 T01191069  RH  026%=      5-min Rain = 0
KMCS 120045Z 28015G20KT 12/M07 A2963 RMK A01 T01191072  RH  026%=      5-min Rain = 0
KMCS 120050Z 28014KT 12/M07 A2963 RMK A01 T01171071  RH  026%=      5-min Rain = 0
KMCS 120055Z 29012KT 11/M07 A2963 RMK A01 T01131068  RH  027%=      5-min Rain = 0
KMCS 120100Z 28011KT 11/M07 A2964 RMK A01 T01101066  RH  028%=      5-min Rain = 0
KMCS 120105Z 28010KT 11/M07 A2964 RMK A01 T01081065  RH  029%=      5-min Rain = 0
KMCS 120110Z 27009KT 11/M07 A2964 RMK A01 T01071065  RH  029%=      5-min Rain = 0
KMCS 120115Z 28009KT 11/M06 A2964 RMK A01 T01051064  RH  030%=      5-min Rain = 0
KMCS 120120Z 28010KT 10/M07 A2965 RMK A01 T01041065  RH  030%=      5-min Rain = 0
KMCS 120125Z 27008KT 10/M07 A2965 RMK A01 T01031066  RH  030%=      5-min Rain = 0
KMCS 120130Z 27009KT 11/M07 A2966 RMK A01 T01051067  RH  029%=      5-min Rain = 0
KMCS 120135Z 27009KT 10/M07 A2966 RMK A01 T01031068  RH  029%=      5-min Rain = 0
KMCS 120140Z 26010KT 10/M07 A2967 RMK A01 T01011067  RH  030%=      5-min Rain = 0
KMCS 120145Z 26012G17KT 10/M07 A2967 RMK A01 T01021068  RH  030%=      5-min Rain = 0
KMCS 120150Z 27011G17KT 10/M07 A2967 RMK A01 T01021071  RH  029%=      5-min Rain = 0
KMCS 120155Z 28014KT 10/M07 A2967 RMK A01 T01011073  RH  029%=      5-min Rain = 0
KMCS 120200Z 27012KT 10/M08 A2968 RMK A01 T01021075  RH  028%=      5-min Rain = 0
KMCS 120205Z 27011KT 10/M08 A2968 RMK A01 T01001077  RH  028%=      5-min Rain = 0
KMCS 120210Z 27011G17KT 10/M08 A2969 RMK A01 T00971078  RH  028%=      5-min Rain = 0
KMCS 120215Z 28014G25KT 10/M08 A297 RMK A01 T00951079  RH  029%=      5-min Rain = 0
KMCS 120220Z 31021G29KT 09/M07 A2971 RMK A01 T00941069  RH  031%=      5-min Rain = 0
KMCS 120225Z 33029G41KT 10/M03 A2971 RMK A01 T00951030  RH  042%=      5-min Rain = 0
KMCS 120230Z 34036G47KT 09/M01 A2972 RMK A01 T00921005  RH  051%=      5-min Rain = 0
KMCS 120235Z 35031G41KT 09/01 A2973 RMK A01 T00860005  RH  057%=      5-min Rain = 0
KMCS 120240Z 36033G43KT 08/01 A2974 RMK A01 T00820008  RH  060%=      5-min Rain = 0
KMCS 120245Z 36031G37KT 08/01 A2975 RMK A01 T00760010  RH  064%=      5-min Rain = 0
KMCS 120250Z 00026G40KT 07/01 A2977 RMK A01 T00710011  RH  067%=      5-min Rain = 0
KMCS 120255Z 35024G32KT 07/01 A2978 RMK A01 T00650013  RH  071%=      5-min Rain = 0
KMCS 120300Z 00025G34KT 06/02 A2978 RMK A01 T00590015  RH  075%=      5-min Rain = 0
KMCS 120305Z 01021G30KT 06/02 A2978 RMK A01 T00570015  RH  075%=      5-min Rain = 0
KMCS 120310Z 01019G29KT 06/01 A2978 RMK A01 T00580013  RH  074%=      5-min Rain = 0
KMCS 120315Z 01020G26KT 06/01 A2978 RMK A01 T00590010  RH  072%=      5-min Rain = 0
KMCS 120320Z 01019G25KT 06/01 A2979 RMK A01 T00610006  RH  069%=      5-min Rain = 0
KMCS 120325Z 00019G29KT 06/00 A298 RMK A01 T00610004  RH  068%=      5-min Rain = 0
KMCS 120330Z 35019G26KT 06/01 A2981 RMK A01 T00590006  RH  069%=      5-min Rain = 0
KMCS 120335Z 36021G28KT 06/01 A2981 RMK A01 T00570007  RH  071%=      5-min Rain = 0
KMCS 120340Z 00021G28KT 06/01 A2981 RMK A01 T00560008  RH  073%=      5-min Rain = 0
KMCS 120345Z 01020G29KT 06/01 A2981 RMK A01 T00550010  RH  074%=      5-min Rain = 0
KMCS 120350Z 00019G27KT 05/01 A2982 RMK A01 T00530011  RH  075%=      5-min Rain = 0
KMCS 120355Z 36019G25KT 05/01 A2983 RMK A01 T00510011  RH  076%=      5-min Rain = 0
KMCS 120400Z 35018G25KT 05/01 A2984 RMK A01 T00480011  RH  078%=      5-min Rain = 0
KMCS 120405Z 35023G32KT 05/01 A2986 RMK A01 T00480013  RH  079%=      5-min Rain = 0
KMCS 120410Z 35027G35KT 05/01 A2986 RMK A01 T00470009  RH  077%=      5-min Rain = 0
KMCS 120415Z 36022G30KT 05/01 A2987 RMK A01 T00450009  RH  078%=      5-min Rain = 0
KMCS 120420Z 35022G29KT 04/01 A2988 RMK A01 T00440006  RH  077%=      5-min Rain = 0
KMCS 120425Z 36023G32KT 04/M00 A2988 RMK A01 T00391004  RH  075%=      5-min Rain = 0
KMCS 120430Z 35022G29KT 04/M01 A2989 RMK A01 T00351006  RH  075%=      5-min Rain = 0
KMCS 120435Z 35023G33KT 03/M01 A2989 RMK A01 T00321009  RH  075%=      5-min Rain = 0
KMCS 120440Z 35025G30KT 03/M01 A299 RMK A01 T00301011  RH  075%=      5-min Rain = 0
KMCS 120445Z 35020G27KT 03/M01 A2991 RMK A01 T00291010  RH  076%=      5-min Rain = 0
KMCS 120450Z 34019G26KT 03/M01 A2992 RMK A01 T00271008  RH  078%=      5-min Rain = 0
KMCS 120455Z 34020G28KT 02/M01 A2993 RMK A01 T00231010  RH  079%=      5-min Rain = 0
KMCS 120500Z 34021G27KT 02/M01 A2993 RMK A01 T00211013  RH  079%=      5-min Rain = 0
KMCS 120505Z 34020G26KT 02/M01 A2994 RMK A01 T00191014  RH  080%=      5-min Rain = 0
KMCS 120510Z 34021G29KT 02/M02 A2994 RMK A01 T00171016  RH  079%=      5-min Rain = 0
KMCS 120515Z 34020G28KT 02/M02 A2995 RMK A01 T00171016  RH  080%=      5-min Rain = 0
KMCS 120520Z 34017G22KT 01/M02 A2996 RMK A01 T00141016  RH  081%=      5-min Rain = 0
KMCS 120525Z 34019G26KT 01/M02 A2996 RMK A01 T00121016  RH  082%=      5-min Rain = 0
KMCS 120530Z 34021G27KT 01/M02 A2996 RMK A01 T00111021  RH  080%=      5-min Rain = 0
KMCS 120535Z 34020G25KT 01/M02 A2997 RMK A01 T00101024  RH  079%=      5-min Rain = 0
KMCS 120540Z 34018G24KT 01/M03 A2997 RMK A01 T00091026  RH  078%=      5-min Rain = 0
KMCS 120545Z 34018G25KT 01/M03 A2997 RMK A01 T00071028  RH  078%=      5-min Rain = 0
KMCS 120550Z 34017G23KT 01/M03 A2997 RMK A01 T00061031  RH  077%=      5-min Rain = 0
KMCS 120555Z 34017G23KT 00/M03 A2997 RMK A01 T00041033  RH  077%=      5-min Rain = 0

Page generated in 0.0158 seconds.